Time;durP1;ratioP1;P1;durP2;ratioP2;P2;SDS_P1;SDS_P2;PMS_P1;PMS_P2;Temp;Humidity;BMP_temperature;BMP_pressure;BME280_temperature;BME280_humidity;BME280_pressure;Samples;Min_cycle;Max_cycle;Signal;HPM_P1;HPM_P2
2022/03/28 00:00:18;;;;;;;1.65;1.10;;;21.00;34.80;;;;;;5076742;28;20100;-78
2022/03/28 00:02:44;;;;;;;1.27;1.17;;;21.00;34.70;;;;;;5095213;28;20074;-78
2022/03/28 00:05:13;;;;;;;1.27;1.17;;;21.10;34.80;;;;;;5094790;28;20051;-78
2022/03/28 00:07:40;;;;;;;1.77;1.48;;;21.00;34.70;;;;;;5094618;28;20051;-78
2022/03/28 00:10:06;;;;;;;1.10;1.00;;;21.00;34.70;;;;;;5076916;28;20068;-78
2022/03/28 00:12:33;;;;;;;1.10;1.00;;;21.00;34.70;;;;;;5094699;28;20135;-77
2022/03/28 00:14:58;;;;;;;1.08;0.98;;;21.00;34.70;;;;;;5094642;28;20048;-78
2022/03/28 00:17:24;;;;;;;0.95;0.93;;;21.00;34.70;;;;;;5094608;28;20059;-77
2022/03/28 00:19:50;;;;;;;1.23;1.00;;;21.00;34.70;;;;;;5094633;28;20143;-77
2022/03/28 00:22:16;;;;;;;1.27;1.10;;;21.00;34.70;;;;;;5059761;28;20052;-78
2022/03/28 00:24:41;;;;;;;1.65;1.20;;;21.00;34.70;;;;;;5094473;28;20048;-78
2022/03/28 00:27:07;;;;;;;1.10;1.00;;;21.10;34.80;;;;;;5075720;28;20052;-78
2022/03/28 00:29:32;;;;;;;1.27;1.15;;;21.00;34.70;;;;;;5057949;28;20125;-78
2022/03/28 00:31:58;;;;;;;1.10;1.00;;;21.00;34.70;;;;;;5057792;28;20412;-78
2022/03/28 00:34:23;;;;;;;1.20;1.10;;;21.00;34.70;;;;;;5094654;28;20070;-78
2022/03/28 00:36:50;;;;;;;0.93;0.90;;;21.00;34.70;;;;;;5059391;28;20051;-78
2022/03/28 00:39:19;;;;;;;1.27;1.13;;;21.00;34.70;;;;;;5075982;28;20090;-78
2022/03/28 00:41:44;;;;;;;1.20;1.10;;;21.10;34.80;;;;;;5076116;28;20154;-77
2022/03/28 00:44:10;;;;;;;1.05;1.00;;;21.00;34.70;;;;;;5094128;28;20087;-78
2022/03/28 00:46:35;;;;;;;1.20;1.10;;;21.00;34.70;;;;;;5094201;28;20044;-78
2022/03/28 00:49:01;;;;;;;1.65;1.17;;;21.00;34.70;;;;;;5075746;28;20052;-78
2022/03/28 00:51:27;;;;;;;1.30;1.13;;;21.10;34.70;;;;;;5094051;28;20484;-77
2022/03/28 00:53:52;;;;;;;1.40;1.10;;;21.00;34.70;;;;;;5094031;28;20440;-78
2022/03/28 00:56:18;;;;;;;1.63;1.15;;;21.00;34.70;;;;;;5076442;28;20052;-77
2022/03/28 00:58:44;;;;;;;1.60;1.35;;;21.10;34.70;;;;;;5076055;28;20047;-77
2022/03/28 01:01:11;;;;;;;1.50;1.15;;;21.00;34.70;;;;;;5075844;28;20116;-78
2022/03/28 01:03:37;;;;;;;1.13;0.95;;;21.10;34.70;;;;;;5093949;28;20064;-78
2022/03/28 01:06:05;;;;;;;1.00;0.90;;;21.10;34.80;;;;;;5075688;28;20044;-78
2022/03/28 01:08:34;;;;;;;0.90;0.90;;;21.10;34.70;;;;;;5093755;28;20047;-77
2022/03/28 01:11:05;;;;;;;1.33;1.13;;;21.00;34.70;;;;;;5075526;28;20044;-78
2022/03/28 01:13:33;;;;;;;;;;;21.10;34.80;;;;;;5076289;28;20134;-77
2022/03/28 01:16:00;;;;;;;1.20;1.10;;;21.10;34.80;;;;;;5093753;28;20264;-78
2022/03/28 01:18:28;;;;;;;1.50;1.10;;;21.10;34.70;;;;;;5093705;28;20097;-78
2022/03/28 01:20:57;;;;;;;1.05;1.02;;;21.10;34.70;;;;;;5093548;28;20150;-78
2022/03/28 01:23:23;;;;;;;1.60;1.20;;;21.10;34.80;;;;;;5075349;28;20044;-78
2022/03/28 01:25:51;;;;;;;1.17;1.08;;;21.10;34.80;;;;;;5093644;28;20048;-77
2022/03/28 01:28:18;;;;;;;1.20;0.95;;;21.00;34.80;;;;;;5093202;28;20055;-78
2022/03/28 01:30:44;;;;;;;1.83;1.73;;;21.00;34.80;;;;;;5093520;28;20919;-78
2022/03/28 01:33:09;;;;;;;1.58;1.02;;;21.00;34.70;;;;;;5093255;28;20120;-78
2022/03/28 01:35:37;;;;;;;1.48;1.00;;;21.10;34.80;;;;;;5093125;28;20059;-78
2022/03/28 01:38:08;;;;;;;1.17;1.02;;;21.00;34.70;;;;;;5073897;28;20389;-78
2022/03/28 01:40:36;;;;;;;1.40;1.00;;;21.10;34.80;;;;;;5092136;28;20051;-78
2022/03/28 01:43:01;;;;;;;1.15;1.02;;;21.10;34.70;;;;;;5092926;28;20112;-78
2022/03/28 01:45:27;;;;;;;1.10;1.00;;;21.10;34.70;;;;;;5058755;28;20449;-78
2022/03/28 01:47:53;;;;;;;1.38;1.08;;;21.00;34.70;;;;;;5093456;28;20055;-78
2022/03/28 01:50:19;;;;;;;1.00;0.90;;;21.10;34.70;;;;;;5093077;28;20048;-78
2022/03/28 01:52:45;;;;;;;1.73;0.90;;;21.10;34.80;;;;;;5074998;28;20377;-78
2022/03/28 01:55:11;;;;;;;1.25;1.10;;;21.10;34.70;;;;;;5093026;28;20063;-78
2022/03/28 01:57:38;;;;;;;1.02;0.93;;;21.10;34.70;;;;;;5075247;28;20113;-78
2022/03/28 02:00:06;;;;;;;1.20;1.00;;;21.10;34.80;;;;;;5093175;28;20403;-78
2022/03/28 02:02:35;;;;;;;0.70;0.70;;;21.10;34.70;;;;;;5075440;28;20060;-78
2022/03/28 02:05:01;;;;;;;1.20;1.10;;;21.10;34.70;;;;;;5093111;28;20458;-78
2022/03/28 02:07:26;;;;;;;1.20;1.10;;;21.10;34.70;;;;;;5092849;28;20055;-78
2022/03/28 02:09:52;;;;;;;1.40;1.00;;;21.10;34.70;;;;;;5075264;28;20059;-77
2022/03/28 02:12:17;;;;;;;1.38;1.20;;;21.10;34.70;;;;;;5075052;28;20105;-78
2022/03/28 02:14:43;;;;;;;1.65;1.00;;;21.10;34.60;;;;;;5074669;28;20059;-78
2022/03/28 02:17:09;;;;;;;1.80;1.13;;;21.10;34.60;;;;;;5092241;28;20044;-78
2022/03/28 02:19:35;;;;;;;0.80;0.80;;;21.10;34.60;;;;;;5092817;28;20052;-77
2022/03/28 02:22:01;;;;;;;1.35;1.10;;;21.20;34.60;;;;;;5092636;28;20528;-78
2022/03/28 02:24:26;;;;;;;1.08;0.90;;;21.20;34.60;;;;;;5092994;28;20052;-78
2022/03/28 02:26:52;;;;;;;1.33;1.00;;;21.20;34.60;;;;;;5074857;28;20051;-78
2022/03/28 02:29:18;;;;;;;1.15;1.00;;;21.20;34.60;;;;;;5074578;28;20181;-78
2022/03/28 02:31:43;;;;;;;1.00;1.00;;;21.20;34.50;;;;;;5092664;28;20494;-78
2022/03/28 02:34:09;;;;;;;1.20;1.10;;;21.20;34.50;;;;;;5058058;28;20568;-78
2022/03/28 02:36:34;;;;;;;1.20;1.10;;;21.20;34.50;;;;;;5092516;28;20067;-78
2022/03/28 02:39:00;;;;;;;1.45;1.15;;;21.20;34.50;;;;;;5092485;28;20131;-78
2022/03/28 02:41:25;;;;;;;0.80;0.80;;;21.20;34.50;;;;;;5057998;28;20055;-78
2022/03/28 02:43:52;;;;;;;1.13;1.00;;;21.30;34.50;;;;;;5092522;28;20048;-78
2022/03/28 02:46:18;;;;;;;1.30;1.15;;;21.30;34.50;;;;;;5092340;28;20511;-78
2022/03/28 02:48:44;;;;;;;1.08;0.98;;;21.30;34.50;;;;;;5057716;28;20052;-78
2022/03/28 02:51:09;;;;;;;0.98;0.90;;;21.30;34.50;;;;;;5074267;28;20059;-78
2022/03/28 02:53:35;;;;;;;0.93;0.93;;;21.30;34.40;;;;;;5061450;28;20059;-78
2022/03/28 02:56:01;;;;;;;1.30;1.00;;;21.30;34.40;;;;;;5095865;28;20385;-78
2022/03/28 02:58:27;;;;;;;1.20;0.90;;;21.30;34.40;;;;;;5095699;28;20043;-77
2022/03/28 03:00:53;;;;;;;1.20;0.93;;;21.40;34.40;;;;;;5095881;28;20044;-78
2022/03/28 03:03:18;;;;;;;1.17;1.08;;;21.30;34.40;;;;;;5077073;28;20079;-78
2022/03/28 03:05:44;;;;;;;1.48;1.00;;;21.40;34.40;;;;;;5095779;28;20133;-78
2022/03/28 03:08:10;;;;;;;1.02;1.00;;;21.30;34.40;;;;;;5095301;28;20416;-78
2022/03/28 03:10:35;;;;;;;0.85;0.85;;;21.30;34.40;;;;;;5077785;28;20510;-78
2022/03/28 03:13:01;;;;;;;1.20;1.10;;;21.30;34.40;;;;;;5095422;28;20052;-78
2022/03/28 03:15:26;;;;;;;1.30;1.20;;;21.30;34.40;;;;;;5095496;28;20055;-78
2022/03/28 03:17:52;;;;;;;1.25;1.00;;;21.30;34.50;;;;;;5075835;28;20080;-78
2022/03/28 03:20:18;;;;;;;1.10;1.00;;;21.30;34.50;;;;;;5075519;28;20055;-78
2022/03/28 03:22:44;;;;;;;1.27;1.17;;;21.30;34.50;;;;;;5095402;28;20056;-78
2022/03/28 03:25:09;;;;;;;1.00;0.90;;;21.20;34.50;;;;;;5095519;28;20106;-77
2022/03/28 03:27:39;;;;;;;0.80;0.77;;;21.30;34.50;;;;;;5095757;28;20507;-78
2022/03/28 03:30:06;;;;;;;1.30;1.20;;;21.30;34.50;;;;;;5075245;28;20511;-78
2022/03/28 03:32:32;;;;;;;0.90;0.90;;;21.20;34.50;;;;;;5095266;28;20468;-78
2022/03/28 03:34:57;;;;;;;1.13;0.90;;;21.20;34.60;;;;;;5095643;28;20131;-78
2022/03/28 03:37:23;;;;;;;1.17;1.00;;;21.20;34.60;;;;;;5095339;28;20075;-77
2022/03/28 03:39:49;;;;;;;1.10;1.00;;;21.20;34.60;;;;;;5077033;28;20411;-78
2022/03/28 03:42:14;;;;;;;0.93;0.90;;;21.20;34.60;;;;;;5076984;28;20109;-78
2022/03/28 03:44:40;;;;;;;1.88;1.13;;;21.20;34.60;;;;;;5095517;28;20502;-78
2022/03/28 03:47:05;;;;;;;1.15;1.05;;;21.20;34.60;;;;;;5095437;28;20467;-78
2022/03/28 03:49:31;;;;;;;1.40;1.13;;;21.20;34.60;;;;;;5094962;28;20401;-78
2022/03/28 03:51:56;;;;;;;1.10;1.00;;;21.10;34.60;;;;;;5077187;28;20398;-78
2022/03/28 03:54:22;;;;;;;0.98;0.90;;;21.10;34.60;;;;;;5076968;28;20051;-77
2022/03/28 03:56:47;;;;;;;1.55;1.20;;;21.20;34.70;;;;;;5076808;28;20052;-77
2022/03/28 03:59:13;;;;;;;1.00;0.90;;;21.20;34.70;;;;;;5094851;28;20048;-78
2022/03/28 04:01:38;;;;;;;1.00;0.90;;;21.10;34.60;;;;;;5095243;28;20454;-78
2022/03/28 04:04:04;;;;;;;2.05;1.05;;;21.10;34.60;;;;;;5075458;28;20080;-78
2022/03/28 04:06:30;;;;;;;0.80;0.80;;;21.10;34.60;;;;;;5095419;28;20044;-77
2022/03/28 04:08:55;;;;;;;0.70;0.70;;;21.10;34.70;;;;;;5076663;28;20052;-78
2022/03/28 04:11:21;;;;;;;1.02;0.90;;;21.10;34.70;;;;;;5095096;28;20055;-78
2022/03/28 04:13:46;;;;;;;1.15;0.90;;;21.10;34.70;;;;;;5076401;28;20052;-78
2022/03/28 04:16:12;;;;;;;0.90;0.90;;;21.10;34.80;;;;;;5076431;28;20044;-78
2022/03/28 04:18:38;;;;;;;0.80;0.80;;;21.10;34.80;;;;;;5094947;28;20059;-78
2022/03/28 04:21:04;;;;;;;1.27;1.13;;;21.10;34.80;;;;;;5094467;28;20491;-78
2022/03/28 04:23:30;;;;;;;1.15;0.90;;;21.10;34.80;;;;;;5058349;28;20144;-77
2022/03/28 04:25:57;;;;;;;1.13;1.02;;;21.10;34.80;;;;;;5094581;28;20063;-78
2022/03/28 04:28:23;;;;;;;0.80;0.80;;;21.00;34.70;;;;;;5059640;28;20056;-78
2022/03/28 04:30:50;;;;;;;0.75;0.75;;;21.00;34.80;;;;;;5074985;28;20049;-78
2022/03/28 04:33:16;;;;;;;0.90;0.90;;;21.00;34.70;;;;;;5094305;28;20106;-78
2022/03/28 04:35:43;;;;;;;0.88;0.88;;;21.10;34.80;;;;;;5094721;28;20483;-78
2022/03/28 04:38:09;;;;;;;1.20;1.00;;;21.10;34.80;;;;;;5058232;28;20063;-78
2022/03/28 04:40:36;;;;;;;1.00;0.90;;;21.10;34.80;;;;;;5094366;28;20056;-78
2022/03/28 04:43:02;;;;;;;1.23;1.08;;;21.10;34.80;;;;;;5092964;28;20537;-78
2022/03/28 04:45:30;;;;;;;1.70;1.10;;;21.00;34.70;;;;;;5094070;28;20047;-78
2022/03/28 04:47:55;;;;;;;0.90;0.90;;;21.00;34.80;;;;;;5094274;28;20054;-77
2022/03/28 04:50:21;;;;;;;0.88;0.82;;;21.00;34.70;;;;;;5093991;28;20051;-78
2022/03/28 04:52:46;;;;;;;1.23;1.13;;;21.10;34.80;;;;;;5094027;28;20086;-78
2022/03/28 04:55:12;;;;;;;0.98;0.90;;;21.00;34.80;;;;;;5076185;28;20056;-78
2022/03/28 04:57:38;;;;;;;0.98;0.95;;;21.00;34.70;;;;;;5076011;28;20067;-78
2022/03/28 05:00:06;;;;;;;0.70;0.68;;;21.00;34.80;;;;;;5093975;28;20121;-78
2022/03/28 05:02:34;;;;;;;1.17;1.08;;;21.00;34.80;;;;;;5075778;28;20056;-77
2022/03/28 05:04:59;;;;;;;0.95;0.85;;;21.00;34.80;;;;;;5093896;28;20055;-78
2022/03/28 05:07:26;;;;;;;0.80;0.80;;;21.00;34.80;;;;;;5093906;28;20044;-78
2022/03/28 05:09:53;;;;;;;0.80;0.80;;;21.00;34.80;;;;;;5075568;28;20189;-78
2022/03/28 05:12:20;;;;;;;1.08;0.98;;;21.00;34.80;;;;;;5093743;28;20104;-78
2022/03/28 05:14:46;;;;;;;1.45;0.95;;;21.00;34.80;;;;;;5074989;28;20051;-78
2022/03/28 05:17:12;;;;;;;0.73;0.73;;;21.10;34.80;;;;;;5092737;28;20056;-78
2022/03/28 05:19:38;;;;;;;2.00;1.00;;;21.00;34.70;;;;;;5093527;28;20135;-78
2022/03/28 05:22:04;;;;;;;0.98;0.80;;;21.00;34.80;;;;;;5093559;28;20142;-78
2022/03/28 05:24:29;;;;;;;1.05;0.80;;;21.00;34.70;;;;;;5093730;28;20404;-78
2022/03/28 05:26:55;;;;;;;1.30;1.10;;;21.10;35.30;;;;;;5075969;28;20044;-78
2022/03/28 05:29:24;;;;;;;1.17;1.08;;;21.10;34.70;;;;;;5093327;28;20059;-78
2022/03/28 05:31:49;;;;;;;1.45;0.93;;;21.10;34.70;;;;;;5075001;28;20048;-77
2022/03/28 05:34:15;;;;;;;1.00;0.90;;;21.10;34.70;;;;;;5075140;28;20104;-78
2022/03/28 05:36:42;;;;;;;1.17;0.90;;;21.10;34.80;;;;;;5093737;28;20048;-77
2022/03/28 05:39:08;;;;;;;1.05;0.95;;;21.10;34.70;;;;;;5093159;28;20101;-78
2022/03/28 05:41:34;;;;;;;1.10;0.90;;;21.10;34.80;;;;;;5093323;28;20109;-78
2022/03/28 05:44:00;;;;;;;0.80;0.80;;;21.10;34.70;;;;;;5074023;28;20136;-78
2022/03/28 05:46:26;;;;;;;1.13;0.98;;;21.10;34.70;;;;;;5093600;28;20082;-77
2022/03/28 05:48:52;;;;;;;1.10;1.00;;;21.10;34.70;;;;;;5093092;28;20429;-78
2022/03/28 05:51:17;;;;;;;1.00;0.90;;;21.10;34.70;;;;;;5074952;28;20052;-77
2022/03/28 05:53:43;;;;;;;1.25;1.15;;;21.10;34.60;;;;;;5093097;28;20168;-78
2022/03/28 05:56:08;;;;;;;0.93;0.93;;;21.10;34.60;;;;;;5074794;28;20055;-78
2022/03/28 05:58:34;;;;;;;0.90;0.90;;;21.10;34.60;;;;;;5093199;28;20279;-77
2022/03/28 06:01:01;;;;;;;1.10;0.90;;;21.10;34.70;;;;;;5092964;28;20059;-78
2022/03/28 06:03:27;;;;;;;1.02;1.00;;;21.10;34.60;;;;;;5074912;28;20052;-78
2022/03/28 06:05:53;;;;;;;1.15;0.98;;;21.10;34.60;;;;;;5074623;28;20059;-79
2022/03/28 06:08:18;;;;;;;0.90;0.88;;;21.20;34.70;;;;;;5073094;28;20048;-79
2022/03/28 06:10:44;;;;;;;0.80;0.80;;;21.20;34.60;;;;;;5092987;28;20047;-79
2022/03/28 06:13:10;;;;;;;0.80;0.80;;;21.20;34.60;;;;;;5092289;28;20138;-79
2022/03/28 06:15:37;;;;;;;1.20;0.95;;;21.20;34.60;;;;;;5092613;28;20490;-79
2022/03/28 06:18:04;;;;;;;1.33;1.15;;;21.20;34.60;;;;;;5071732;28;20139;-78
2022/03/28 06:20:31;;;;;;;1.48;0.80;;;21.20;34.60;;;;;;5091727;28;20055;-79
2022/03/28 06:22:57;;;;;;;0.93;0.93;;;21.20;34.60;;;;;;5091792;28;20079;-79
2022/03/28 06:25:23;;;;;;;1.10;0.98;;;21.20;34.60;;;;;;5073786;28;20090;-79
2022/03/28 06:27:48;;;;;;;0.90;0.90;;;21.20;34.60;;;;;;5091906;28;20399;-78
2022/03/28 06:30:14;;;;;;;1.00;0.93;;;21.20;34.60;;;;;;5092276;28;20105;-79
2022/03/28 06:32:40;;;;;;;1.00;0.90;;;21.20;34.60;;;;;;5092468;28;20044;-79
2022/03/28 06:35:07;;;;;;;1.17;1.08;;;21.20;34.60;;;;;;5092050;28;20080;-79
2022/03/28 06:37:36;;;;;;;1.20;0.90;;;21.20;34.60;;;;;;5091821;28;20048;-78
2022/03/28 06:40:04;;;;;;;0.95;0.85;;;21.20;34.60;;;;;;5092065;28;20056;-78
2022/03/28 06:42:33;;;;;;;1.13;1.00;;;21.20;34.60;;;;;;5091849;28;20055;-78
2022/03/28 06:44:59;;;;;;;0.85;0.85;;;21.20;34.60;;;;;;5092025;28;20044;-79
2022/03/28 06:47:25;;;;;;;0.90;0.90;;;21.20;34.60;;;;;;5091878;28;20048;-78
2022/03/28 06:49:51;;;;;;;0.95;0.90;;;21.30;34.60;;;;;;5071893;28;20519;-79
2022/03/28 06:52:17;;;;;;;0.93;0.80;;;21.20;34.60;;;;;;5073588;28;20395;-79
2022/03/28 06:54:43;;;;;;;1.08;0.90;;;21.20;34.60;;;;;;5073641;28;20157;-78
2022/03/28 06:57:08;;;;;;;1.02;0.93;;;21.20;34.60;;;;;;5073754;28;20048;-79
2022/03/28 06:59:34;;;;;;;0.63;0.63;;;21.30;34.60;;;;;;5091662;28;20075;-78
2022/03/28 07:01:59;;;;;;;0.82;0.82;;;21.30;34.60;;;;;;5073695;28;20427;-79
2022/03/28 07:04:25;;;;;;;1.05;0.90;;;21.30;34.60;;;;;;5091756;28;20051;-79
2022/03/28 07:06:51;;;;;;;0.80;0.80;;;21.30;34.50;;;;;;5091476;28;20093;-78
2022/03/28 07:09:17;;;;;;;1.27;1.10;;;21.30;34.50;;;;;;5091533;28;20526;-78
2022/03/28 07:11:43;;;;;;;0.95;0.88;;;21.30;34.50;;;;;;5074096;28;20067;-79
2022/03/28 07:14:09;;;;;;;0.80;0.80;;;21.40;34.50;;;;;;5071556;28;20045;-79
2022/03/28 07:16:35;;;;;;;1.17;1.08;;;21.40;34.50;;;;;;5072772;28;20109;-79
2022/03/28 07:19:01;;;;;;;1.08;0.98;;;21.40;34.40;;;;;;5072950;28;20051;-78
2022/03/28 07:21:27;;;;;;;1.27;0.90;;;21.40;34.50;;;;;;5073453;28;20052;-79
2022/03/28 07:23:53;;;;;;;0.70;0.70;;;21.40;34.40;;;;;;5091280;28;20080;-79
2022/03/28 07:26:23;;;;;;;1.98;0.90;;;21.40;34.40;;;;;;5073268;28;20063;-78
2022/03/28 07:28:49;;;;;;;1.23;0.90;;;21.40;34.40;;;;;;5091213;28;20139;-79
2022/03/28 07:31:14;;;;;;;1.10;1.00;;;21.40;34.50;;;;;;5091425;28;20139;-79
2022/03/28 07:33:41;;;;;;;1.10;0.95;;;21.40;34.40;;;;;;5072823;28;20058;-78
2022/03/28 07:36:10;;;;;;;0.70;0.70;;;21.40;34.40;;;;;;5091160;28;20044;-79
2022/03/28 07:38:37;;;;;;;1.00;0.93;;;21.40;34.40;;;;;;5073320;28;20048;-79
2022/03/28 07:41:03;;;;;;;0.80;0.80;;;21.40;34.40;;;;;;5060195;28;20154;-79
2022/03/28 07:43:32;;;;;;;0.80;0.80;;;21.40;34.40;;;;;;5094666;28;20052;-79
2022/03/28 07:45:59;;;;;;;0.80;0.80;;;21.40;34.40;;;;;;5076503;28;20055;-79
2022/03/28 07:48:27;;;;;;;0.88;0.88;;;21.40;34.40;;;;;;5059434;28;20048;-79
2022/03/28 07:50:55;;;;;;;0.82;0.82;;;21.40;34.40;;;;;;5094422;28;20044;-79
2022/03/28 07:53:21;;;;;;;1.25;0.90;;;21.40;34.40;;;;;;5075474;28;20514;-79
2022/03/28 07:55:47;;;;;;;0.70;0.70;;;21.40;34.40;;;;;;5094451;28;20048;-78
2022/03/28 07:58:12;;;;;;;1.10;1.00;;;21.40;34.40;;;;;;5075750;28;20052;-79
2022/03/28 08:00:39;;;;;;;0.88;0.88;;;21.40;34.40;;;;;;5076054;28;20221;-79
2022/03/28 08:03:05;;;;;;;0.93;0.80;;;21.40;34.40;;;;;;5058236;28;20045;-79
2022/03/28 08:05:31;;;;;;;1.00;0.90;;;21.40;34.40;;;;;;5094502;28;20067;-79
2022/03/28 08:07:57;;;;;;;1.10;1.00;;;21.40;34.40;;;;;;5059964;28;20086;-79
2022/03/28 08:10:23;;;;;;;1.05;0.85;;;21.40;34.30;;;;;;5094190;28;20407;-78
2022/03/28 08:12:49;;;;;;;1.35;0.90;;;21.40;34.30;;;;;;5094440;28;20135;-78
2022/03/28 08:15:16;;;;;;;0.80;0.70;;;21.40;34.30;;;;;;5094268;28;20052;-79
2022/03/28 08:17:42;;;;;;;0.95;0.85;;;21.50;34.40;;;;;;5094274;28;20044;-78
2022/03/28 08:20:10;;;;;;;0.77;0.77;;;21.40;34.30;;;;;;5094121;28;20055;-79
2022/03/28 08:22:39;;;;;;;0.93;0.88;;;21.50;34.40;;;;;;5094110;28;20602;-78
2022/03/28 08:25:05;;;;;;;1.00;0.80;;;21.50;34.30;;;;;;5074381;28;20052;-79
2022/03/28 08:27:31;;;;;;;1.00;0.90;;;21.50;34.30;;;;;;5075840;28;20503;-78
2022/03/28 08:29:57;;;;;;;0.93;0.80;;;21.50;34.40;;;;;;5093899;28;20056;-79
2022/03/28 08:32:23;;;;;;;1.15;1.05;;;21.50;34.30;;;;;;5075807;28;20102;-79
2022/03/28 08:34:50;;;;;;;1.10;1.00;;;21.50;34.30;;;;;;5076009;28;20055;-78
2022/03/28 08:37:16;;;;;;;1.15;1.00;;;21.50;34.30;;;;;;5075711;28;20059;-78
2022/03/28 08:39:45;;;;;;;0.70;0.70;;;21.50;34.30;;;;;;5093718;28;20560;-78
2022/03/28 08:42:14;;;;;;;1.02;0.93;;;21.50;34.30;;;;;;5075780;28;20058;-78
2022/03/28 08:44:41;;;;;;;1.00;0.98;;;21.50;34.30;;;;;;5094020;28;20047;-79
2022/03/28 08:47:09;;;;;;;1.20;0.88;;;21.50;34.30;;;;;;5075565;28;20055;-79
2022/03/28 08:49:36;;;;;;;1.23;1.08;;;21.50;34.30;;;;;;5075314;28;20055;-79
2022/03/28 08:52:03;;;;;;;0.90;0.90;;;21.50;34.30;;;;;;5094068;28;21085;-78
2022/03/28 08:54:28;;;;;;;1.10;0.95;;;21.50;34.30;;;;;;5093610;28;20123;-79
2022/03/28 08:56:54;;;;;;;1.27;0.95;;;21.60;34.30;;;;;;5075387;28;20044;-78
2022/03/28 08:59:19;;;;;;;0.93;0.90;;;21.60;34.30;;;;;;5093680;28;20048;-79
2022/03/28 09:01:45;;;;;;;2.05;0.80;;;21.60;34.30;;;;;;5075342;28;20134;-79
2022/03/28 09:04:14;;;;;;;1.55;0.95;;;21.60;34.30;;;;;;5093668;28;20055;-78
2022/03/28 09:06:42;;;;;;;1.70;0.90;;;21.60;34.20;;;;;;5075350;28;20154;-79
2022/03/28 09:09:12;;;;;;;0.77;0.75;;;21.60;34.20;;;;;;5072867;28;20443;-78
2022/03/28 09:11:42;;;;;;;1.17;1.08;;;21.60;34.20;;;;;;5075103;28;20047;-79
2022/03/28 09:14:22;;;;;;;1.03;0.90;;;21.70;34.20;;;;;;5093474;28;20488;-79
2022/03/28 09:17:00;;;;;;;1.73;0.90;;;21.70;34.20;;;;;;5074904;28;20329;-78
2022/03/28 09:19:47;;;;;;;1.38;0.80;;;21.70;34.10;;;;;;5075259;28;20059;-78
2022/03/28 09:22:26;;;;;;;2.28;1.17;;;21.70;34.10;;;;;;5093274;28;20082;-78
2022/03/28 09:24:54;;;;;;;1.42;1.15;;;21.70;34.20;;;;;;5093250;28;20400;-78
2022/03/28 09:27:22;;;;;;;0.80;0.80;;;21.70;34.20;;;;;;5091970;28;20059;-78
2022/03/28 09:29:58;;;;;;;1.00;0.90;;;21.60;34.20;;;;;;5075138;28;20087;-78
2022/03/28 09:32:27;;;;;;;1.08;0.98;;;21.70;34.20;;;;;;5075468;28;20051;-79
2022/03/28 09:35:21;;;;;;;0.98;0.88;;;21.70;34.20;;;;;;5093334;28;20073;-79
2022/03/28 09:38:07;;;;;;;2.33;1.00;;;21.70;34.20;;;;;;5074848;28;20114;-79
2022/03/28 09:40:52;;;;;;;0.90;0.85;;;21.70;34.20;;;;;;5093022;28;20058;-79
2022/03/28 09:43:20;;;;;;;1.77;0.70;;;21.70;34.20;;;;;;5073609;28;20048;-79
2022/03/28 09:45:59;;;;;;;0.70;0.70;;;21.70;34.10;;;;;;5093082;28;20048;-79
2022/03/28 09:48:32;;;;;;;1.30;0.90;;;21.70;34.10;;;;;;5093095;28;20055;-79
2022/03/28 09:51:01;;;;;;;0.88;0.85;;;21.70;34.10;;;;;;5075315;28;20105;-79
2022/03/28 09:53:31;;;;;;;0.80;0.80;;;21.70;34.10;;;;;;5093087;28;20101;-79
2022/03/28 09:56:07;;;;;;;0.88;0.85;;;21.70;34.10;;;;;;5074568;28;20048;-78
2022/03/28 09:58:42;;;;;;;1.85;0.73;;;21.70;34.10;;;;;;5091641;28;20040;-78
2022/03/28 10:01:15;;;;;;;1.05;0.88;;;21.70;34.00;;;;;;5074100;28;20063;-78
2022/03/28 10:03:48;;;;;;;1.00;0.70;;;21.80;34.10;;;;;;5093053;28;20064;-79
2022/03/28 10:06:14;;;;;;;0.70;0.70;;;21.80;34.10;;;;;;5057585;28;20491;-78
2022/03/28 10:08:40;;;;;;;0.68;0.68;;;21.80;34.00;;;;;;5074349;28;20055;-79
2022/03/28 10:11:08;;;;;;;1.23;0.90;;;21.80;34.00;;;;;;5092444;28;20056;-79
2022/03/28 10:13:34;;;;;;;0.70;0.70;;;21.80;34.00;;;;;;5092367;28;20480;-79
2022/03/28 10:16:02;;;;;;;1.52;1.00;;;21.80;34.00;;;;;;5092227;28;20044;-79
2022/03/28 10:18:30;;;;;;;2.10;0.90;;;21.90;34.00;;;;;;5057160;28;20055;-79
2022/03/28 10:21:00;;;;;;;1.05;0.85;;;21.80;33.90;;;;;;5074354;28;20475;-79
2022/03/28 10:23:33;;;;;;;1.00;0.90;;;21.80;33.90;;;;;;5040752;28;20492;-79
2022/03/28 10:26:01;;;;;;;2.45;0.93;;;21.90;33.90;;;;;;5074182;28;20052;-79
2022/03/28 10:28:27;;;;;;;0.93;0.88;;;21.80;33.90;;;;;;5092358;28;20055;-79
2022/03/28 10:31:15;;;;;;;1.00;0.80;;;21.90;33.90;;;;;;5072696;28;20060;-79
2022/03/28 10:33:51;;;;;;;0.88;0.80;;;21.90;33.90;;;;;;5074115;28;20060;-79
2022/03/28 10:36:28;;;;;;;0.82;0.82;;;21.80;33.90;;;;;;5092117;28;20169;-79
2022/03/28 10:39:15;;;;;;;1.02;0.90;;;21.90;33.90;;;;;;5092168;28;20056;-79
2022/03/28 10:41:41;;;;;;;2.38;1.10;;;21.90;33.90;;;;;;5073717;28;20060;-79
2022/03/28 10:44:07;;;;;;;1.70;0.85;;;21.90;33.90;;;;;;5072171;28;20040;-79
2022/03/28 10:46:35;;;;;;;1.30;1.08;;;21.90;33.90;;;;;;5091979;28;20058;-79
2022/03/28 10:49:01;;;;;;;1.98;1.00;;;21.90;33.90;;;;;;5073676;28;20060;-79
2022/03/28 10:51:30;;;;;;;2.13;0.90;;;21.90;33.90;;;;;;5073900;28;20052;-79
2022/03/28 10:54:06;;;;;;;1.80;1.10;;;21.90;33.90;;;;;;5092012;28;20531;-79
2022/03/28 10:56:38;;;;;;;1.55;1.00;;;21.90;33.90;;;;;;5091986;28;20139;-79
2022/03/28 10:59:09;;;;;;;2.35;0.90;;;21.90;33.90;;;;;;5090749;28;20059;-79
2022/03/28 11:01:36;;;;;;;0.85;0.82;;;21.90;33.90;;;;;;5092005;28;20465;-79
2022/03/28 11:04:15;;;;;;;1.15;1.00;;;21.90;33.90;;;;;;5072803;28;20416;-78
2022/03/28 11:07:05;;;;;;;1.13;1.00;;;21.90;33.90;;;;;;5072428;28;20045;-79
2022/03/28 11:09:46;;;;;;;1.35;0.93;;;21.90;33.90;;;;;;5091799;28;20101;-79
2022/03/28 11:12:27;;;;;;;1.90;1.00;;;21.90;33.80;;;;;;5073694;28;20097;-78
2022/03/28 11:14:54;;;;;;;;;;;21.90;33.80;;;;;;5077541;28;20048;-79
2022/03/28 11:17:20;;;;;;;1.90;0.93;;;22.00;33.80;;;;;;5077179;28;19924;-79
2022/03/28 11:20:09;;;;;;;1.63;0.90;;;21.90;33.70;;;;;;5095166;28;20068;-79
2022/03/28 11:22:57;;;;;;;1.85;1.10;;;21.90;33.80;;;;;;5077076;28;20059;-79
2022/03/28 11:25:44;;;;;;;1.63;0.90;;;21.90;33.80;;;;;;5060472;28;20047;-79
2022/03/28 11:28:23;;;;;;;1.65;0.98;;;21.90;33.80;;;;;;5060013;28;20561;-79
2022/03/28 11:30:59;;;;;;;1.35;0.80;;;22.00;33.80;;;;;;5094983;28;20056;-79
2022/03/28 11:33:28;;;;;;;2.80;1.20;;;22.00;33.80;;;;;;5095124;28;20048;-79
2022/03/28 11:36:02;;;;;;;2.47;1.30;;;22.00;33.80;;;;;;5076954;28;20048;-78
2022/03/28 11:38:53;;;;;;;1.92;1.10;;;21.90;33.80;;;;;;5094975;28;20060;-79
2022/03/28 11:41:21;;;;;;;1.98;1.20;;;21.90;34.40;;;;;;5076934;28;20052;-79
2022/03/28 11:43:52;;;;;;;2.20;0.90;;;22.00;33.90;;;;;;5077142;28;20052;-79
2022/03/28 11:46:20;;;;;;;1.08;0.95;;;22.00;33.90;;;;;;5076747;28;20059;-79
2022/03/28 11:49:04;;;;;;;1.92;0.80;;;21.90;33.80;;;;;;5076718;28;20059;-79
2022/03/28 11:51:32;;;;;;;2.33;1.00;;;21.90;33.80;;;;;;5074668;28;20098;-79
2022/03/28 11:54:07;;;;;;;2.63;1.20;;;22.00;33.80;;;;;;5076681;28;20471;-79
2022/03/28 11:59:21;;;;;;;2.35;1.13;;;22.00;33.80;;;;;;5075031;28;20075;-79
2022/03/28 12:01:49;;;;;;;2.78;0.98;;;22.00;33.80;;;;;;5094556;28;20067;-79
2022/03/28 12:04:19;;;;;;;0.93;0.90;;;22.00;33.80;;;;;;5076845;28;20097;-79
2022/03/28 12:06:46;;;;;;;2.65;1.27;;;22.00;33.70;;;;;;5059712;28;20526;-78
2022/03/28 12:09:17;;;;;;;2.58;0.90;;;22.00;33.70;;;;;;5059384;28;20498;-79
2022/03/28 12:11:50;;;;;;;1.55;1.00;;;22.00;33.70;;;;;;5076533;28;20056;-79
2022/03/28 12:14:16;;;;;;;2.47;1.30;;;22.00;33.70;;;;;;5076298;28;20074;-79
2022/03/28 12:16:51;;;;;;;1.30;1.13;;;22.00;33.70;;;;;;5094239;28;20113;-79
2022/03/28 12:19:22;;;;;;;2.10;1.15;;;22.00;33.70;;;;;;5094403;28;20067;-79
2022/03/28 12:21:52;;;;;;;2.40;1.00;;;22.00;33.70;;;;;;5094563;28;20052;-79
2022/03/28 12:24:20;;;;;;;3.90;1.10;;;22.00;33.70;;;;;;5093878;28;20040;-79
2022/03/28 12:26:48;;;;;;;1.35;1.10;;;22.00;33.70;;;;;;5094513;28;20048;-79
2022/03/28 12:29:15;;;;;;;2.85;1.20;;;22.00;33.70;;;;;;5094347;28;20051;-79
2022/03/28 12:31:45;;;;;;;2.22;1.20;;;22.00;33.70;;;;;;5076142;28;20055;-79
2022/03/28 12:34:12;;;;;;;3.23;1.10;;;22.10;33.60;;;;;;5094356;28;20557;-79
2022/03/28 12:36:38;;;;;;;1.65;1.10;;;22.00;33.60;;;;;;5074121;28;20044;-79
2022/03/28 12:39:06;;;;;;;1.98;1.30;;;22.00;33.60;;;;;;5094437;28;20052;-79
2022/03/28 12:41:44;;;;;;;2.25;1.17;;;22.00;34.20;;;;;;5094176;28;20064;-79
2022/03/28 12:44:13;;;;;;;1.52;1.13;;;22.10;33.80;;;;;;5076066;28;20084;-78
2022/03/28 12:46:39;;;;;;;1.83;1.27;;;22.00;33.70;;;;;;5074219;28;20052;-79
2022/03/28 12:49:16;;;;;;;3.80;1.17;;;22.00;33.70;;;;;;5075773;28;20047;-79
2022/03/28 12:51:43;;;;;;;1.48;0.90;;;22.00;33.70;;;;;;5094186;28;20083;-79
2022/03/28 12:54:11;;;;;;;3.72;1.15;;;22.00;33.70;;;;;;5093865;28;20055;-79